KAUM/AUM METAR and TAF weather

Enter ICAO airport designator
Station Type Date Time Source
KAUM METAR 2021/06/24 05:35 UTC NOAA

KAUM 240535Z AUTO 20010KT 10SM BKN039 25/21 A2982 RMK AO2


Station Type Date Time Source
KAUM Decoded METAR 2021/06/24 05:35 UTC NOAA

Austin Municipal, MN, United States (KAUM) 43-40N 092-56W
Jun 24, 2021 - 01:35 AM EDT / 2021.06.24 0535 UTC
Wind: from the SSW (200 degrees) at 12 MPH (10 KT):0
Visibility: 10 mile(s):0
Sky conditions: mostly cloudy
Temperature: 77 F (25 C)
Dew Point: 69 F (21 C)
Relative Humidity: 78%
Pressure (altimeter): 29.82 in. Hg (1009 hPa)
ob: KAUM 240535Z AUTO 20010KT 10SM BKN039 25/21 A2982 RMK AO2
cycle: 5

Station Type Date Time Source
KAUM TAF UTC NOAA

Error!

Example: see airport list